createdAt,value
2023-02-16T00:01:31.708Z,10.73
2023-02-16T00:05:35.036Z,10.50
2023-02-16T00:09:36.493Z,11.00
2023-02-16T00:13:44.323Z,10.40
2023-02-16T00:17:45.993Z,9.77
2023-02-16T00:21:49.684Z,9.43
2023-02-16T00:25:51.131Z,10.32
2023-02-16T00:29:52.564Z,9.60
2023-02-16T00:33:54.405Z,11.00
2023-02-16T00:37:55.850Z,10.10
2023-02-16T00:42:19.841Z,9.70
2023-02-16T00:46:21.695Z,9.98
2023-02-16T00:50:30.422Z,9.05
2023-02-16T00:54:32.199Z,9.93
2023-02-16T00:58:35.208Z,10.00
2023-02-16T01:02:36.735Z,9.75
2023-02-16T01:06:56.831Z,9.77
2023-02-16T01:11:04.247Z,9.77
2023-02-16T01:15:10.170Z,8.90
2023-02-16T01:19:12.934Z,9.43
2023-02-16T01:23:14.614Z,9.60
2023-02-16T01:27:16.096Z,9.88
2023-02-16T01:31:18.016Z,9.60
2023-02-16T01:35:21.912Z,9.82
2023-02-16T01:39:23.402Z,10.07
2023-02-16T01:43:30.606Z,9.43
2023-02-16T01:47:42.422Z,9.57
2023-02-16T01:52:05.273Z,9.82
2023-02-16T01:56:41.761Z,10.75
2023-02-16T02:00:49.364Z,9.88
2023-02-16T02:05:13.657Z,9.70
2023-02-16T02:09:25.264Z,9.98
2023-02-16T02:13:33.983Z,10.60
2023-02-16T02:17:37.277Z,10.10
2023-02-16T02:22:20.646Z,10.65
2023-02-16T02:26:53.285Z,9.73
2023-02-16T02:31:38.273Z,11.45
2023-02-16T02:35:49.154Z,10.63
2023-02-16T02:40:05.930Z,10.88
2023-02-16T02:44:09.456Z,11.70
2023-02-16T02:48:11.041Z,10.80
2023-02-16T02:52:12.561Z,11.32
2023-02-16T02:56:35.647Z,11.35
2023-02-16T03:00:41.512Z,10.95
2023-02-16T03:04:45.858Z,10.40
2023-02-16T03:08:51.823Z,11.32
2023-02-16T03:12:53.425Z,11.75
2023-02-16T03:17:16.923Z,10.93
2023-02-16T03:21:37.215Z,10.80
2023-02-16T03:25:57.538Z,11.88
2023-02-16T03:30:01.417Z,12.30
2023-02-16T03:34:03.165Z,11.77
2023-02-16T03:38:06.201Z,12.45
2023-02-16T03:42:07.766Z,10.52
2023-02-16T03:46:09.362Z,11.63
2023-02-16T03:50:10.896Z,9.77
2023-02-16T03:54:12.700Z,10.95
2023-02-16T03:58:17.992Z,11.75
2023-02-16T04:02:19.562Z,11.85
2023-02-16T04:06:21.094Z,11.93
2023-02-16T04:10:23.231Z,10.65
2023-02-16T04:14:24.724Z,12.20
2023-02-16T04:18:26.254Z,11.68
2023-02-16T04:22:27.846Z,11.02
2023-02-16T04:26:29.383Z,10.73
2023-02-16T04:30:31.387Z,12.40
2023-02-16T04:34:32.965Z,11.90
2023-02-16T04:38:34.514Z,12.25
2023-02-16T04:42:36.048Z,11.52
2023-02-16T04:46:37.477Z,12.23
2023-02-16T04:50:38.998Z,12.13
2023-02-16T04:54:40.718Z,11.93
2023-02-16T04:58:42.569Z,10.15
2023-02-16T05:02:44.055Z,11.48
2023-02-16T05:06:45.701Z,11.57
2023-02-16T05:11:07.290Z,12.45
2023-02-16T05:15:09.061Z,13.18
2023-02-16T05:19:10.912Z,12.93
2023-02-16T05:23:12.415Z,12.60
2023-02-16T05:27:19.631Z,11.77
2023-02-16T05:31:22.841Z,11.02
2023-02-16T05:35:24.538Z,11.23
2023-02-16T05:39:26.069Z,12.05
2023-02-16T05:43:27.665Z,12.13
2023-02-16T05:47:29.261Z,11.23
2023-02-16T05:51:30.985Z,5.57
2023-02-16T05:55:32.554Z,11.68
2023-02-16T05:59:34.069Z,10.80
2023-02-16T06:03:38.424Z,12.45
2023-02-16T06:07:40.229Z,11.07
2023-02-16T06:11:42.023Z,14.05
2023-02-16T06:15:43.937Z,13.05
2023-02-16T06:19:45.497Z,12.38
2023-02-16T06:23:47.324Z,12.10
2023-02-16T06:27:50.063Z,11.50
2023-02-16T06:31:51.715Z,12.40
2023-02-16T06:35:53.267Z,12.63
2023-02-16T06:39:54.763Z,11.75
2023-02-16T06:43:56.929Z,12.40
2023-02-16T06:47:58.476Z,11.65
2023-02-16T06:52:00.018Z,11.80
2023-02-16T06:56:01.541Z,12.07
2023-02-16T07:00:05.173Z,13.23
2023-02-16T07:04:06.719Z,11.20
2023-02-16T07:08:08.364Z,12.60
2023-02-16T07:12:09.870Z,12.38
2023-02-16T07:16:11.529Z,12.63
2023-02-16T07:20:13.213Z,13.75
2023-02-16T07:24:14.692Z,12.48
2023-02-16T07:28:16.176Z,13.05
2023-02-16T07:32:17.731Z,9.75
2023-02-16T07:36:19.262Z,13.57
2023-02-16T07:40:20.876Z,13.48
2023-02-16T07:44:22.497Z,11.60
2023-02-16T07:48:23.945Z,14.15
2023-02-16T07:52:30.763Z,12.98
2023-02-16T07:56:34.059Z,12.55
2023-02-16T08:00:35.814Z,11.80
2023-02-16T08:04:37.274Z,11.75
2023-02-16T08:08:39.184Z,14.68
2023-02-16T08:12:40.784Z,14.98
2023-02-16T08:16:42.344Z,14.10
2023-02-16T08:21:01.495Z,10.07
2023-02-16T08:25:06.875Z,14.73
2023-02-16T08:29:10.217Z,12.65
2023-02-16T08:33:11.692Z,12.50
2023-02-16T08:37:13.664Z,14.48
2023-02-16T08:41:15.928Z,14.40
2023-02-16T08:45:18.358Z,14.25
2023-02-16T08:49:21.930Z,13.82
2023-02-16T08:53:24.522Z,14.50
2023-02-16T08:57:26.016Z,9.93
2023-02-16T09:01:28.556Z,13.85
2023-02-16T09:05:30.083Z,9.68
2023-02-16T09:09:31.498Z,10.32
2023-02-16T09:13:37.825Z,13.95
2023-02-16T09:17:39.267Z,14.50
2023-02-16T09:21:41.689Z,12.65
2023-02-16T09:25:43.189Z,14.90
2023-02-16T09:29:44.641Z,15.25
2023-02-16T09:33:47.008Z,13.80
2023-02-16T09:37:49.860Z,13.48
2023-02-16T09:41:57.591Z,13.45
2023-02-16T09:46:01.090Z,6.75
2023-02-16T09:50:13.993Z,8.43
2023-02-16T09:54:32.463Z,13.68
2023-02-16T09:58:42.656Z,13.98
2023-02-16T10:02:54.678Z,13.52
2023-02-16T10:07:16.736Z,15.23
2023-02-16T10:11:38.775Z,14.48
2023-02-16T10:15:44.068Z,12.75
2023-02-16T10:19:52.381Z,15.88
2023-02-16T10:24:05.137Z,14.48
2023-02-16T10:28:32.465Z,15.68
2023-02-16T10:32:43.955Z,14.95
2023-02-16T10:37:19.330Z,12.55
2023-02-16T10:41:49.076Z,14.93
2023-02-16T10:45:53.947Z,13.55
2023-02-16T10:49:56.044Z,12.95
2023-02-16T10:54:12.053Z,12.68
2023-02-16T10:58:21.269Z,14.18
2023-02-16T11:02:25.961Z,11.52
2023-02-16T11:06:28.937Z,13.85
2023-02-16T11:10:52.696Z,14.75
2023-02-16T11:15:18.910Z,10.57
2023-02-16T11:19:25.461Z,12.75
2023-02-16T11:23:34.738Z,14.05
2023-02-16T11:27:36.192Z,14.65
2023-02-16T11:31:39.454Z,15.35
2023-02-16T11:35:44.355Z,12.32
2023-02-16T11:39:52.855Z,13.82
2023-02-16T11:43:55.991Z,14.20
2023-02-16T11:48:03.262Z,14.73
2023-02-16T11:52:23.108Z,12.52
2023-02-16T11:56:27.716Z,12.82
2023-02-16T12:00:30.268Z,13.40
2023-02-16T12:04:34.317Z,13.73
2023-02-16T12:09:00.933Z,15.00
2023-02-16T12:13:28.813Z,12.90
2023-02-16T12:17:30.218Z,13.57
2023-02-16T12:21:41.946Z,14.23
2023-02-16T12:26:10.101Z,14.82
2023-02-16T12:30:11.618Z,12.32
2023-02-16T12:34:41.863Z,13.65
2023-02-16T12:38:59.289Z,12.80
2023-02-16T12:43:28.447Z,14.02
2023-02-16T12:47:41.420Z,12.13
2023-02-16T12:51:48.291Z,13.88
2023-02-16T12:56:00.424Z,13.02
2023-02-16T13:00:17.706Z,11.10
2023-02-16T13:04:42.500Z,13.15
2023-02-16T13:09:06.314Z,11.27
2023-02-16T13:13:19.456Z,10.65
2023-02-16T13:17:32.261Z,9.00
2023-02-16T13:22:06.924Z,11.02
2023-02-16T13:26:42.898Z,12.57
2023-02-16T13:31:12.378Z,12.75
2023-02-16T13:35:13.883Z,12.15
2023-02-16T13:39:46.395Z,12.35
2023-02-16T13:43:55.870Z,12.50
2023-02-16T13:47:58.777Z,11.63
2023-02-16T13:52:00.629Z,11.02
2023-02-16T13:56:22.458Z,10.80
2023-02-16T14:00:39.247Z,12.30
2023-02-16T14:04:40.765Z,11.18
2023-02-16T14:08:43.691Z,12.15
2023-02-16T14:12:46.052Z,12.10
2023-02-16T14:16:47.494Z,11.18
2023-02-16T14:21:01.142Z,11.57
2023-02-16T14:25:27.468Z,10.88
2023-02-16T14:29:43.245Z,10.88
2023-02-16T14:34:00.495Z,9.63
2023-02-16T14:38:05.318Z,10.77
2023-02-16T14:42:09.471Z,10.27
2023-02-16T14:46:47.644Z,11.38
2023-02-16T14:51:26.708Z,9.52
2023-02-16T14:55:41.149Z,9.27
2023-02-16T14:59:52.943Z,9.68
2023-02-16T15:03:57.951Z,11.02
2023-02-16T15:08:22.345Z,7.35
2023-02-16T15:12:32.657Z,10.38
2023-02-16T15:16:37.465Z,11.13
2023-02-16T15:20:39.639Z,11.23
2023-02-16T15:24:41.292Z,11.57
2023-02-16T15:28:50.545Z,10.32
2023-02-16T15:32:55.229Z,11.55
2023-02-16T15:36:57.252Z,9.70
2023-02-16T15:41:01.917Z,10.25
2023-02-16T15:45:27.998Z,11.15
2023-02-16T15:49:32.827Z,11.10
2023-02-16T15:53:54.491Z,11.10
2023-02-16T15:57:58.937Z,11.20
2023-02-16T16:02:11.573Z,12.27
2023-02-16T16:06:13.361Z,10.77
2023-02-16T16:10:47.448Z,10.77
2023-02-16T16:14:58.123Z,10.35
2023-02-16T16:19:07.883Z,11.82
2023-02-16T16:27:31.738Z,12.70
2023-02-16T16:31:39.528Z,15.02
2023-02-16T16:35:47.528Z,19.20
2023-02-16T16:40:18.171Z,15.70
2023-02-16T16:48:36.477Z,11.02
2023-02-16T16:52:45.851Z,11.27
2023-02-16T16:56:50.728Z,11.48
2023-02-16T17:00:52.258Z,11.50
2023-02-16T17:04:53.808Z,11.05
2023-02-16T17:08:55.532Z,11.98
2023-02-16T17:12:58.933Z,11.60
2023-02-16T17:17:00.816Z,12.40
2023-02-16T17:21:02.328Z,11.65
2023-02-16T17:25:04.057Z,13.60
2023-02-16T17:29:08.694Z,12.15
2023-02-16T17:33:10.872Z,13.75
2023-02-16T17:37:12.691Z,14.70
2023-02-16T17:41:21.537Z,15.32
2023-02-16T17:45:23.023Z,13.00
2023-02-16T17:49:24.585Z,12.95
2023-02-16T17:53:27.478Z,13.02
2023-02-16T17:57:29.306Z,14.15
2023-02-16T18:01:31.323Z,12.60
2023-02-16T18:05:33.159Z,13.18
2023-02-16T18:09:34.839Z,14.23
2023-02-16T18:13:36.760Z,11.40
2023-02-16T18:17:38.335Z,13.38
2023-02-16T18:21:39.823Z,14.10
2023-02-16T18:25:43.874Z,12.50
2023-02-16T18:29:45.841Z,11.50
2023-02-16T18:33:47.293Z,13.40
2023-02-16T18:37:49.012Z,12.80
2023-02-16T18:41:50.577Z,12.75
2023-02-16T18:45:52.188Z,12.43
2023-02-16T18:49:53.676Z,13.02
2023-02-16T18:53:56.404Z,13.20
2023-02-16T18:57:57.889Z,11.07
2023-02-16T19:02:00.251Z,13.52
2023-02-16T19:06:01.687Z,13.30
2023-02-16T19:10:04.830Z,12.40
2023-02-16T19:14:06.425Z,13.98
2023-02-16T19:18:07.878Z,12.70
2023-02-16T19:22:09.939Z,13.30
2023-02-16T19:26:14.501Z,13.30
2023-02-16T19:30:16.080Z,13.27
2023-02-16T19:34:17.663Z,13.43
2023-02-16T19:38:19.098Z,15.48
2023-02-16T19:42:21.372Z,16.15
2023-02-16T19:46:24.033Z,14.88
2023-02-16T19:50:25.736Z,10.02
2023-02-16T19:54:28.751Z,14.65
2023-02-16T19:58:30.320Z,13.43
2023-02-16T20:02:31.790Z,10.95
2023-02-16T20:06:39.135Z,14.02
2023-02-16T20:10:43.895Z,13.77
2023-02-16T20:14:45.473Z,14.02
2023-02-16T20:18:47.633Z,13.82
2023-02-16T20:22:49.067Z,14.57
2023-02-16T20:26:51.956Z,14.95
2023-02-16T20:30:53.650Z,14.93
2023-02-16T20:34:55.134Z,13.80
2023-02-16T20:38:56.756Z,14.52
2023-02-16T20:42:58.236Z,13.85
2023-02-16T20:46:59.787Z,14.80
2023-02-16T20:51:04.018Z,9.35
2023-02-16T20:55:06.939Z,14.25
2023-02-16T20:59:08.484Z,14.05
2023-02-16T21:03:10.058Z,14.23
2023-02-16T21:07:11.594Z,14.77
2023-02-16T21:11:13.681Z,15.90
2023-02-16T21:15:15.173Z,13.35
2023-02-16T21:19:22.809Z,14.52
2023-02-16T21:23:24.948Z,14.93
2023-02-16T21:27:26.507Z,14.20
2023-02-16T21:31:28.116Z,14.65
2023-02-16T21:35:29.714Z,13.90
2023-02-16T21:39:50.180Z,14.98
2023-02-16T21:44:03.329Z,13.35
2023-02-16T21:48:23.373Z,14.63
2023-02-16T21:52:24.913Z,11.93
2023-02-16T21:56:29.170Z,8.07
2023-02-16T22:00:30.658Z,4.53
2023-02-16T22:04:32.090Z,15.25
2023-02-16T22:08:34.932Z,13.95
2023-02-16T22:12:36.506Z,15.63
2023-02-16T22:16:38.997Z,13.75
2023-02-16T22:20:40.483Z,15.55
2023-02-16T22:24:41.972Z,15.75
2023-02-16T22:28:43.401Z,13.30
2023-02-16T22:32:45.083Z,16.38
2023-02-16T22:36:46.597Z,13.38
2023-02-16T22:40:48.036Z,17.23
2023-02-16T22:44:49.480Z,17.20
2023-02-16T22:48:51.834Z,14.60
2023-02-16T22:52:53.516Z,16.27
2023-02-16T22:56:54.983Z,16.73
2023-02-16T23:00:56.507Z,16.92
2023-02-16T23:04:58.702Z,15.82
2023-02-16T23:09:12.114Z,16.63
2023-02-16T23:13:13.550Z,16.70
2023-02-16T23:17:15.010Z,16.75
2023-02-16T23:21:19.536Z,16.85
2023-02-16T23:25:33.623Z,15.63
2023-02-16T23:29:35.048Z,17.17
2023-02-16T23:33:36.529Z,17.23
2023-02-16T23:37:38.024Z,17.92
2023-02-16T23:41:40.831Z,17.73
2023-02-16T23:45:42.466Z,17.05
2023-02-16T23:49:43.916Z,16.58
2023-02-16T23:53:45.354Z,13.10
2023-02-16T23:57:46.900Z,13.25
